Jackson Heights, NY (11372)

11:20 AM EST on March 02, 2015 (GMT -0500)
Middle Village Juniper Valley Park | Change Station
CLOSE
Current Station
Personal Weather Station
Location: Queens, NY
Elevation: 108 ft
Nearby Weather Stations

Elev 108 ft 40.72 °N, 73.89 °W | Updated 8 seconds ago

Mostly Cloudy
Mostly Cloudy
35.3 °F
Feels Like 26 °F
N
14.0
Wind Variable Wind from WNW
Gusts 19.0 mph

Today
High -- | Low -- °F
--% Chance of Precip.
Yesterday
High -- | Low -- °F
Precip. -- in
6:28 AM 5:47 PM
Waxing Gibbous, 92% visible
Pressure 30.15 in
Visibility 9.0 miles
Clouds Scattered Clouds 3400 ft
Mostly Cloudy 4200 ft
Mostly Cloudy 24000 ft
Windchill 26 °F
Dew Point 20 °F
Humidity 54%
Rainfall 0.00 in
Snow Depth Not available.
UV 3 out of 12
Pollen .50 out of 12
Air Quality Not available.
Flu Activity Not available.
METAR KLGA 021551Z 32018G26KT 9SM SCT034 BKN042 BKN240 01/M06 A3015 RMK AO2 PK WND 31030/1520 SLP209 SNB12E20 P0000 T00111061

More Conditions Fewer Conditions

Pressure 30.15 in
Visibility 9.0 miles
Clouds Scattered Clouds 3400 ft
Mostly Cloudy 4200 ft
Mostly Cloudy 24000 ft
Windchill 26 °F
Dew Point 20 °F
Humidity 54%
Rainfall 0.00 in
Snow Depth Not available.
UV 3 out of 12
Pollen .50 out of 12
Air Quality Not available.
Flu Activity Not available.
METAR KLGA 021551Z 32018G26KT 9SM SCT034 BKN042 BKN240 01/M06 A3015 RMK AO2 PK WND 31030/1520 SLP209 SNB12E20 P0000 T00111061

More Conditions Fewer Conditions

10-Day Weather Forecast

Almanac

Astronomy

Mar. 02, 2015 Rise Set
Actual Time
Civil Twilight
Nautical Twilight
Astronomical Twilight
Moon
Length of Visible Light
Length of Day
Tomorrow will be .
, % of the Moon is Illuminated

Today's Extremes

State Highs State Lows

Community

WunderPhotos

Upload Photos

1,801,838 photos uploaded!

WunderBlogs® & News

Nearby

Air Quality

  Air Quality AQ Index Pollutant
Not available.

Snow Depth

Station Depth Elevation

Earthquake Activity

City Distance Mag. Time & Date
Minimum magnitude displayed is 2.5.

Coastal Water Temperatures

Place Temperature

Nearby Weather Stations